createdAt,value
2023-05-05T04:51:04.793Z,19.80
2023-05-05T04:53:31.524Z,19.75
2023-05-05T04:56:00.176Z,19.73
2023-05-05T04:58:26.831Z,19.42
2023-05-05T05:00:53.196Z,19.50
2023-05-05T05:03:19.645Z,19.82
2023-05-05T05:05:46.156Z,19.49
2023-05-05T05:08:15.515Z,19.63
2023-05-05T05:10:47.676Z,19.75
2023-05-05T05:13:23.802Z,19.66
2023-05-05T05:15:51.074Z,19.46
2023-05-05T05:18:18.995Z,19.79
2023-05-05T05:20:46.751Z,19.70
2023-05-05T05:23:13.928Z,19.90
2023-05-05T05:25:41.429Z,19.41
2023-05-05T05:28:10.732Z,19.48
2023-05-05T05:30:38.345Z,19.82
2023-05-05T05:33:05.479Z,19.71
2023-05-05T05:35:33.410Z,19.71
2023-05-05T05:38:00.971Z,19.51
2023-05-05T05:40:28.001Z,19.45
2023-05-05T05:42:55.090Z,19.44
2023-05-05T05:45:22.249Z,19.58
2023-05-05T05:47:49.661Z,19.77
2023-05-05T05:50:19.554Z,19.96
2023-05-05T05:53:18.402Z,20.03
2023-05-05T05:55:49.222Z,20.03
2023-05-05T05:58:17.451Z,19.55
2023-05-05T06:00:46.657Z,20.08
2023-05-05T06:34:19.732Z,20.21
2023-05-05T06:37:33.957Z,19.63
2023-05-05T06:47:27.763Z,20.21
2023-05-05T06:58:55.522Z,20.14
2023-05-05T07:01:39.835Z,20.26
2023-05-05T07:04:34.338Z,19.76
2023-05-05T07:07:05.508Z,20.04
2023-05-05T07:09:32.837Z,19.93
2023-05-05T07:12:11.027Z,20.08
2023-05-05T07:14:55.011Z,20.14
2023-05-05T07:20:28.344Z,19.92
2023-05-05T07:24:01.434Z,20.03
2023-05-05T07:29:18.139Z,19.97
2023-05-05T07:31:57.648Z,20.06
2023-05-05T07:34:24.814Z,19.88
2023-05-05T07:36:56.657Z,20.18
2023-05-05T07:39:30.222Z,20.14
2023-05-05T07:41:57.302Z,19.88
2023-05-05T07:44:24.556Z,19.79
2023-05-05T07:47:15.729Z,20.27
2023-05-05T07:49:42.791Z,20.17
2023-05-05T07:59:15.812Z,19.83
2023-05-05T08:01:55.205Z,20.17
2023-05-05T08:04:22.360Z,20.08
2023-05-05T08:07:54.931Z,19.94
2023-05-05T08:10:48.152Z,20.14
2023-05-05T08:16:57.531Z,20.11
2023-05-05T08:19:32.931Z,19.79
2023-05-05T08:22:01.564Z,19.82
2023-05-05T08:24:28.848Z,19.75
2023-05-05T08:26:56.939Z,19.99
2023-05-05T08:29:41.468Z,20.00
2023-05-05T08:32:19.145Z,20.06
2023-05-05T08:34:48.897Z,20.10
2023-05-05T08:37:19.176Z,19.80
2023-05-05T08:39:46.338Z,20.05
2023-05-05T08:42:29.070Z,19.91
2023-05-05T08:45:04.370Z,19.71
2023-05-05T08:47:32.516Z,19.80
2023-05-05T08:50:01.673Z,19.89
2023-05-05T08:52:35.656Z,19.81
2023-05-05T08:55:26.117Z,19.61
2023-05-05T08:57:58.749Z,19.40
2023-05-05T09:00:27.469Z,19.70
2023-05-05T09:03:05.721Z,19.45
2023-05-05T09:05:38.938Z,19.84
2023-05-05T09:08:14.328Z,19.68
2023-05-05T09:10:44.541Z,19.80
2023-05-05T09:13:25.007Z,19.73
2023-05-05T09:15:52.123Z,19.63
2023-05-05T09:18:20.891Z,19.31
2023-05-05T09:20:48.265Z,19.63
2023-05-05T09:23:23.030Z,19.71
2023-05-05T09:26:08.392Z,19.46
2023-05-05T09:28:38.196Z,19.44
2023-05-05T09:31:17.465Z,19.33
2023-05-05T09:33:49.561Z,19.38
2023-05-05T09:36:16.801Z,19.47
2023-05-05T09:39:04.727Z,19.57
2023-05-05T09:41:46.006Z,19.33
2023-05-05T09:44:16.935Z,19.60
2023-05-05T09:47:00.504Z,19.46
2023-05-05T09:49:27.906Z,19.33
2023-05-05T09:52:08.154Z,19.11
2023-05-05T09:55:14.088Z,19.39
2023-05-05T09:57:52.340Z,19.52
2023-05-05T10:00:23.503Z,18.73
2023-05-05T10:03:07.811Z,18.78
2023-05-05T10:05:57.435Z,19.14
2023-05-05T10:08:37.120Z,19.46
2023-05-05T10:11:09.197Z,19.23
2023-05-05T10:13:42.557Z,19.06
2023-05-05T10:16:21.517Z,19.05
2023-05-05T10:18:51.162Z,19.12
2023-05-05T10:21:35.651Z,18.96
2023-05-05T10:24:33.689Z,19.01
2023-05-05T10:27:30.916Z,18.90
2023-05-05T10:30:16.229Z,18.88
2023-05-05T10:33:14.034Z,19.00
2023-05-05T10:36:15.763Z,18.92
2023-05-05T10:41:48.697Z,18.64
2023-05-05T10:44:16.899Z,18.51
2023-05-05T10:46:50.277Z,18.50
2023-05-05T10:49:43.161Z,18.54
2023-05-05T10:52:23.373Z,18.14
2023-05-05T10:55:15.740Z,18.27
2023-05-05T10:57:48.614Z,18.55
2023-05-05T11:00:40.406Z,18.10
2023-05-05T11:03:16.888Z,18.03
2023-05-05T11:06:06.404Z,18.18
2023-05-05T11:08:44.313Z,18.30
2023-05-05T11:11:12.604Z,17.87
2023-05-05T11:13:42.800Z,17.75
2023-05-05T11:16:52.011Z,17.68
2023-05-05T11:19:44.062Z,17.87
2023-05-05T11:22:16.827Z,18.24
2023-05-05T11:24:57.253Z,17.88
2023-05-05T11:28:05.131Z,17.76
2023-05-05T11:30:33.657Z,17.92
2023-05-05T11:33:37.890Z,17.84
2023-05-05T11:36:10.506Z,17.59
2023-05-05T11:39:11.985Z,17.40
2023-05-05T11:41:53.390Z,17.61
2023-05-05T11:44:32.394Z,17.18
2023-05-05T11:47:07.012Z,17.12
2023-05-05T11:49:38.215Z,17.31
2023-05-05T11:52:10.671Z,16.97
2023-05-05T11:54:49.073Z,17.24
2023-05-05T11:57:27.544Z,17.41
2023-05-05T12:00:11.206Z,17.14
2023-05-05T12:02:39.303Z,17.31
2023-05-05T12:05:07.217Z,16.98
2023-05-05T12:07:34.423Z,17.24
2023-05-05T12:10:07.999Z,17.05
2023-05-05T12:12:44.383Z,16.77
2023-05-05T12:15:13.526Z,16.94
2023-05-05T12:17:46.316Z,16.96
2023-05-05T12:20:13.956Z,17.04
2023-05-05T12:22:42.591Z,16.94
2023-05-05T12:25:10.352Z,17.03
2023-05-05T12:27:39.213Z,16.61
2023-05-05T12:30:19.057Z,16.35
2023-05-05T12:32:46.853Z,16.70
2023-05-05T12:35:14.670Z,16.69
2023-05-05T12:37:48.153Z,16.83
2023-05-05T12:40:47.877Z,16.98
2023-05-05T12:43:33.678Z,16.78
2023-05-05T12:46:18.022Z,16.76
2023-05-05T12:48:47.971Z,17.02
2023-05-05T12:51:23.028Z,16.57
2023-05-05T12:54:05.953Z,16.48
2023-05-05T12:56:38.100Z,16.76
2023-05-05T12:59:09.834Z,16.73
2023-05-05T13:01:48.163Z,16.55
2023-05-05T13:04:15.674Z,16.48
2023-05-05T13:06:46.837Z,16.78
2023-05-05T13:09:30.284Z,16.24
2023-05-05T13:12:00.142Z,16.50
2023-05-05T13:14:27.306Z,16.56
2023-05-05T13:16:54.818Z,16.95
2023-05-05T13:19:25.095Z,16.50
2023-05-05T13:21:53.494Z,16.84
2023-05-05T13:24:28.642Z,16.70
2023-05-05T13:26:58.634Z,16.42
2023-05-05T13:29:30.460Z,16.65
2023-05-05T13:31:59.205Z,16.92
2023-05-05T13:34:26.463Z,16.74
2023-05-05T13:36:53.667Z,16.35
2023-05-05T13:39:20.854Z,16.43
2023-05-05T13:41:50.105Z,16.57
2023-05-05T13:44:17.415Z,16.93
2023-05-05T13:46:44.787Z,16.84
2023-05-05T13:49:15.011Z,16.62
2023-05-05T13:51:43.692Z,16.46
2023-05-05T13:54:11.401Z,16.38
2023-05-05T13:56:38.648Z,16.71
2023-05-05T13:59:05.827Z,16.79
2023-05-05T14:01:33.102Z,16.29
2023-05-05T14:04:05.835Z,16.45
2023-05-05T14:06:36.491Z,16.49
2023-05-05T14:09:06.539Z,16.65
2023-05-05T14:11:33.827Z,16.46
2023-05-05T14:14:03.399Z,17.00
2023-05-05T14:16:30.732Z,16.78
2023-05-05T14:19:02.012Z,16.56
2023-05-05T14:21:35.507Z,16.73
2023-05-05T14:24:05.841Z,16.53
2023-05-05T14:26:34.081Z,16.47
2023-05-05T14:29:04.804Z,16.62
2023-05-05T14:31:34.421Z,16.67
2023-05-05T14:34:05.697Z,16.41
2023-05-05T14:36:46.860Z,16.87
2023-05-05T14:39:14.152Z,16.88
2023-05-05T14:41:41.253Z,16.81
2023-05-05T14:44:08.538Z,16.76
2023-05-05T14:46:38.584Z,16.51
2023-05-05T14:49:06.111Z,16.78
2023-05-05T14:51:33.621Z,16.82
2023-05-05T14:54:03.857Z,16.69
2023-05-05T14:56:33.081Z,16.75
2023-05-05T14:59:00.283Z,16.96
2023-05-05T15:01:27.432Z,16.58
2023-05-05T15:03:55.458Z,16.83
2023-05-05T15:06:22.834Z,16.82
2023-05-05T15:08:49.849Z,16.71
2023-05-05T15:11:16.891Z,16.78
2023-05-05T15:13:43.933Z,16.99
2023-05-05T15:16:11.083Z,16.82
2023-05-05T15:18:38.688Z,16.82
2023-05-05T15:21:05.999Z,16.78
2023-05-05T15:23:33.057Z,16.73
2023-05-05T15:26:00.185Z,16.74
2023-05-05T15:28:27.477Z,17.07
2023-05-05T15:30:54.553Z,17.15
2023-05-05T15:33:21.667Z,16.88
2023-05-05T15:35:49.346Z,16.68
2023-05-05T15:38:16.497Z,16.75
2023-05-05T15:40:48.271Z,16.77
2023-05-05T15:43:16.719Z,16.85
2023-05-05T15:45:43.917Z,17.03
2023-05-05T15:48:10.973Z,17.33
2023-05-05T15:50:38.160Z,17.14
2023-05-05T15:53:05.230Z,17.13
2023-05-05T15:55:32.600Z,16.82
2023-05-05T15:57:59.646Z,17.29
2023-05-05T16:00:27.018Z,16.86
2023-05-05T16:02:54.205Z,17.10
2023-05-05T16:05:23.003Z,17.19
2023-05-05T16:07:50.475Z,16.94
2023-05-05T16:10:19.442Z,17.24
2023-05-05T16:12:46.855Z,16.97
2023-05-05T16:15:14.337Z,17.31
2023-05-05T16:17:41.600Z,17.30
2023-05-05T16:20:09.411Z,17.32
2023-05-05T16:22:37.198Z,17.15
2023-05-05T16:25:04.524Z,17.03
2023-05-05T16:27:32.972Z,16.93
2023-05-05T16:30:10.152Z,17.27
2023-05-05T16:32:37.439Z,17.06
2023-05-05T16:35:04.950Z,17.14
2023-05-05T16:37:32.203Z,16.80
2023-05-05T16:40:01.621Z,17.21
2023-05-05T16:42:31.410Z,17.32
2023-05-05T16:44:58.515Z,16.98
2023-05-05T16:47:25.880Z,17.22
2023-05-05T16:49:52.934Z,17.07
2023-05-05T16:52:20.079Z,17.37
2023-05-05T16:54:48.352Z,17.17
2023-05-05T16:57:15.344Z,17.15
2023-05-05T16:59:42.424Z,16.85
2023-05-05T17:02:09.684Z,17.42
2023-05-05T17:04:36.849Z,17.30
2023-05-05T17:07:03.877Z,17.01
2023-05-05T17:09:30.988Z,17.39
2023-05-05T17:11:58.054Z,17.43
2023-05-05T17:14:25.185Z,17.35
2023-05-05T17:16:53.340Z,17.63
2023-05-05T17:19:20.382Z,17.28
2023-05-05T17:21:47.581Z,17.14
2023-05-05T17:24:14.686Z,17.22
2023-05-05T17:26:41.894Z,17.35
2023-05-05T17:29:10.028Z,17.39
2023-05-05T17:31:38.799Z,17.81
2023-05-05T17:34:06.044Z,17.29
2023-05-05T17:36:33.848Z,17.67
2023-05-05T17:39:00.962Z,17.46
2023-05-05T17:41:28.034Z,17.26
2023-05-05T17:43:55.114Z,17.64
2023-05-05T17:46:22.294Z,17.48
2023-05-05T17:48:49.556Z,17.42
2023-05-05T17:51:16.615Z,17.71
2023-05-05T17:53:43.805Z,17.68
2023-05-05T17:56:10.936Z,17.77
2023-05-05T17:58:38.685Z,17.50
2023-05-05T18:01:06.569Z,17.64
2023-05-05T18:03:33.889Z,17.54
2023-05-05T18:06:02.547Z,17.84
2023-05-05T18:08:29.690Z,17.27
2023-05-05T18:10:57.359Z,17.62
2023-05-05T18:13:24.498Z,17.73
2023-05-05T18:15:51.631Z,17.66
2023-05-05T18:18:18.711Z,17.83
2023-05-05T18:20:45.812Z,17.64
2023-05-05T18:23:13.192Z,17.64
2023-05-05T18:25:40.226Z,17.64
2023-05-05T18:28:08.270Z,17.74
2023-05-05T18:30:36.406Z,17.68
2023-05-05T18:33:06.850Z,17.69
2023-05-05T18:35:34.075Z,17.71
2023-05-05T18:38:01.305Z,17.94
2023-05-05T18:40:28.397Z,17.70
2023-05-05T18:42:56.025Z,17.71
2023-05-05T18:45:23.351Z,17.52
2023-05-05T18:47:50.525Z,17.81
2023-05-05T18:50:17.955Z,17.97
2023-05-05T18:52:45.100Z,17.79
2023-05-05T18:55:12.194Z,17.85
2023-05-05T18:57:39.276Z,17.73
2023-05-05T19:00:07.140Z,17.81
2023-05-05T19:02:34.185Z,17.97
2023-05-05T19:05:01.469Z,17.58
2023-05-05T19:07:35.291Z,17.85
2023-05-05T19:10:04.604Z,18.19
2023-05-05T19:12:31.887Z,18.06
2023-05-05T19:14:59.064Z,17.90
2023-05-05T19:17:26.366Z,18.28
2023-05-05T19:19:53.685Z,17.98
2023-05-05T19:22:23.315Z,17.61
2023-05-05T19:24:50.356Z,18.00
2023-05-05T19:27:17.493Z,18.33
2023-05-05T19:29:44.640Z,17.79
2023-05-05T19:32:11.758Z,17.92
2023-05-05T19:34:41.049Z,18.21
2023-05-05T19:37:08.648Z,18.00
2023-05-05T19:39:38.083Z,18.25
2023-05-05T19:42:07.799Z,18.07
2023-05-05T19:44:34.904Z,18.23
2023-05-05T19:47:05.848Z,17.98
2023-05-05T19:49:33.219Z,18.08
2023-05-05T19:52:02.028Z,18.15
2023-05-05T19:54:30.263Z,18.38
2023-05-05T19:56:58.550Z,18.12
2023-05-05T19:59:26.067Z,18.33
2023-05-05T20:01:53.310Z,18.22
2023-05-05T20:04:20.821Z,18.25
2023-05-05T20:06:48.201Z,18.48
2023-05-05T20:09:15.612Z,18.62
2023-05-05T20:11:51.962Z,18.47
2023-05-05T20:14:24.618Z,18.42
2023-05-05T20:17:01.360Z,18.42
2023-05-05T20:20:30.642Z,18.41
2023-05-05T20:22:57.829Z,18.98
2023-05-05T20:25:30.024Z,18.82
2023-05-05T20:27:57.442Z,18.57
2023-05-05T20:30:24.755Z,18.35
2023-05-05T20:32:51.823Z,18.45
2023-05-05T20:35:18.888Z,18.66
2023-05-05T20:37:46.110Z,18.66
2023-05-05T20:40:13.819Z,18.70
2023-05-05T20:42:40.827Z,19.05
